createdAt,value
2018-08-03T00:00:26.989Z,23.41
2018-08-03T00:01:26.966Z,23.34
2018-08-03T00:02:27.015Z,23.42
2018-08-03T00:03:26.936Z,23.34
2018-08-03T00:04:26.913Z,23.38
2018-08-03T00:05:26.894Z,23.47
2018-08-03T00:06:26.874Z,23.31
2018-08-03T00:07:26.854Z,23.35
2018-08-03T00:08:26.825Z,23.34
2018-08-03T00:09:26.809Z,23.29
2018-08-03T00:10:27.877Z,23.22
2018-08-03T00:11:26.773Z,23.22
2018-08-03T00:12:26.869Z,23.22
2018-08-03T00:13:26.874Z,23.18
2018-08-03T00:14:26.782Z,23.16
2018-08-03T00:15:26.683Z,23.09
2018-08-03T00:16:27.716Z,23.09
2018-08-03T00:17:26.658Z,23.06
2018-08-03T00:18:26.706Z,23.04
2018-08-03T00:19:26.623Z,22.96
2018-08-03T00:20:26.588Z,23.14
2018-08-03T00:21:26.583Z,22.96
2018-08-03T00:22:26.559Z,22.91
2018-08-03T00:23:26.559Z,22.96
2018-08-03T00:24:26.524Z,22.99
2018-08-03T00:25:26.563Z,23.00
2018-08-03T00:26:26.465Z,22.97
2018-08-03T00:27:26.447Z,22.93
2018-08-03T00:28:26.431Z,22.82
2018-08-03T00:29:26.414Z,22.88
2018-08-03T00:30:26.394Z,22.81
2018-08-03T00:32:14.381Z,22.89
2018-08-03T00:33:14.371Z,22.81
2018-08-03T00:34:14.313Z,22.74
2018-08-03T00:35:14.295Z,22.74
2018-08-03T00:36:14.275Z,22.76
2018-08-03T00:37:14.246Z,22.78
2018-08-03T00:38:14.231Z,22.75
2018-08-03T00:39:14.238Z,22.72
2018-08-03T00:40:14.201Z,22.82
2018-08-03T00:41:14.174Z,22.67
2018-08-03T00:42:14.149Z,22.66
2018-08-03T00:43:14.137Z,22.69
2018-08-03T00:44:14.227Z,22.72
2018-08-03T00:45:14.111Z,22.64
2018-08-03T00:46:14.063Z,22.67
2018-08-03T00:47:14.049Z,22.66
2018-08-03T00:48:14.036Z,22.61
2018-08-03T00:49:15.082Z,22.63
2018-08-03T00:50:14.001Z,22.63
2018-08-03T00:51:14.075Z,22.59
2018-08-03T00:52:13.944Z,22.60
2018-08-03T00:53:13.985Z,22.63
2018-08-03T00:54:13.911Z,22.67
2018-08-03T00:55:14.008Z,22.60
2018-08-03T00:56:13.866Z,22.57
2018-08-03T00:57:13.905Z,22.49
2018-08-03T00:58:13.826Z,22.46
2018-08-03T00:59:13.920Z,22.51
2018-08-03T01:00:13.782Z,22.64
2018-08-03T01:01:13.834Z,22.51
2018-08-03T01:02:13.743Z,22.57
2018-08-03T01:03:13.842Z,22.56
2018-08-03T01:04:13.719Z,22.39
2018-08-03T01:05:13.748Z,22.41
2018-08-03T01:06:13.663Z,22.45
2018-08-03T01:07:13.763Z,22.45
2018-08-03T01:08:13.625Z,22.39
2018-08-03T01:09:13.678Z,22.44
2018-08-03T01:10:13.589Z,22.30
2018-08-03T01:11:13.611Z,22.38
2018-08-03T01:12:13.544Z,22.33
2018-08-03T01:13:13.598Z,22.38
2018-08-03T01:14:13.501Z,22.29
2018-08-03T01:15:13.518Z,22.20
2018-08-03T01:16:13.457Z,22.30
2018-08-03T01:17:13.527Z,22.19
2018-08-03T01:18:13.422Z,22.27
2018-08-03T01:19:13.452Z,22.27
2018-08-03T01:20:13.382Z,22.15
2018-08-03T01:21:14.483Z,22.14
2018-08-03T01:22:13.345Z,22.15
2018-08-03T01:24:06.970Z,22.11
2018-08-03T01:25:06.996Z,22.15
2018-08-03T01:27:13.235Z,22.15
2018-08-03T01:28:13.205Z,22.08
2018-08-03T01:29:13.173Z,22.08
2018-08-03T01:30:13.152Z,22.04
2018-08-03T01:31:13.232Z,22.04
2018-08-03T01:32:13.104Z,22.11
2018-08-03T01:33:13.092Z,21.96
2018-08-03T01:34:13.078Z,21.93
2018-08-03T01:35:13.055Z,21.99
2018-08-03T01:36:13.122Z,21.98
2018-08-03T01:37:13.014Z,22.02
2018-08-03T01:38:12.997Z,21.96
2018-08-03T01:39:12.966Z,21.99
2018-08-03T01:40:12.951Z,21.99
2018-08-03T01:41:12.928Z,21.93
2018-08-03T01:42:12.922Z,21.93
2018-08-03T01:43:12.885Z,21.91
2018-08-03T01:44:12.874Z,21.98
2018-08-03T01:45:12.843Z,21.98
2018-08-03T01:46:12.835Z,21.98
2018-08-03T01:47:12.801Z,21.82
2018-08-03T01:48:12.801Z,21.89
2018-08-03T01:49:12.808Z,21.86
2018-08-03T01:50:12.745Z,21.94
2018-08-03T01:51:12.738Z,21.85
2018-08-03T01:52:12.700Z,21.91
2018-08-03T01:53:12.683Z,21.90
2018-08-03T01:54:12.659Z,21.83
2018-08-03T01:55:12.632Z,21.81
2018-08-03T01:56:58.930Z,21.83
2018-08-03T01:57:58.892Z,21.86
2018-08-03T01:59:52.362Z,21.82
2018-08-03T02:00:52.353Z,21.79
2018-08-03T02:01:52.412Z,21.79
2018-08-03T02:02:52.286Z,21.75
2018-08-03T02:03:52.334Z,21.64
2018-08-03T02:04:52.268Z,21.71
2018-08-03T02:05:52.235Z,21.64
2018-08-03T02:06:52.238Z,21.64
2018-08-03T02:07:52.192Z,21.55
2018-08-03T02:08:52.172Z,21.61
2018-08-03T02:09:52.178Z,21.61
2018-08-03T02:10:52.125Z,21.67
2018-08-03T02:11:52.134Z,21.59
2018-08-03T02:12:52.082Z,21.59
2018-08-03T02:13:52.080Z,21.51
2018-08-03T02:14:52.046Z,21.45
2018-08-03T02:15:52.033Z,21.49
2018-08-03T02:16:52.110Z,21.42
2018-08-03T02:17:51.984Z,21.46
2018-08-03T02:18:51.964Z,21.38
2018-08-03T02:19:51.937Z,21.43
2018-08-03T02:20:51.954Z,21.28
2018-08-03T02:21:51.895Z,21.40
2018-08-03T02:22:51.876Z,21.45
2018-08-03T02:23:51.888Z,21.42
2018-08-03T02:24:51.839Z,21.42
2018-08-03T02:25:51.828Z,21.28
2018-08-03T02:26:51.796Z,21.37
2018-08-03T02:27:51.863Z,21.37
2018-08-03T02:28:51.763Z,21.24
2018-08-03T02:29:51.730Z,21.28
2018-08-03T02:30:51.782Z,21.33
2018-08-03T02:31:51.691Z,21.40
2018-08-03T02:32:51.669Z,21.30
2018-08-03T02:33:52.728Z,21.30
2018-08-03T02:34:51.639Z,21.30
2018-08-03T02:35:56.330Z,21.19
2018-08-03T02:36:51.583Z,21.30
2018-08-03T02:37:53.677Z,21.26
2018-08-03T02:38:51.560Z,21.27
2018-08-03T02:39:51.540Z,21.28
2018-08-03T02:40:51.497Z,21.31
2018-08-03T02:41:52.604Z,21.30
2018-08-03T02:42:51.464Z,21.27
2018-08-03T02:43:53.527Z,21.28
2018-08-03T02:44:51.424Z,21.28
2018-08-03T02:45:51.480Z,21.27
2018-08-03T02:46:51.386Z,21.33
2018-08-03T02:47:52.440Z,21.37
2018-08-03T02:48:51.329Z,21.42
2018-08-03T02:49:51.407Z,21.34
2018-08-03T02:50:51.311Z,21.36
2018-08-03T02:51:51.320Z,21.28
2018-08-03T02:52:51.272Z,21.36
2018-08-03T02:53:51.337Z,21.36
2018-08-03T02:54:51.207Z,21.38
2018-08-03T02:55:51.190Z,21.30
2018-08-03T02:56:51.174Z,21.27
2018-08-03T02:57:51.261Z,21.28
2018-08-03T02:58:51.125Z,21.30
2018-08-03T02:59:51.115Z,21.28
2018-08-03T03:00:51.080Z,21.34
2018-08-03T03:01:52.107Z,21.26
2018-08-03T03:02:51.041Z,21.24
2018-08-03T03:03:55.905Z,21.26
2018-08-03T03:04:50.998Z,21.26
2018-08-03T03:05:56.842Z,21.21
2018-08-03T03:06:50.959Z,21.19
2018-08-03T03:07:50.963Z,21.28
2018-08-03T03:08:50.929Z,21.19
2018-08-03T03:09:52.977Z,21.12
2018-08-03T03:10:50.889Z,21.08
2018-08-03T03:11:56.879Z,21.11
2018-08-03T03:12:50.840Z,21.05
2018-08-03T03:13:50.857Z,20.98
2018-08-03T03:14:50.805Z,20.96
2018-08-03T03:15:50.863Z,21.00
2018-08-03T03:16:50.752Z,21.01
2018-08-03T03:17:51.800Z,20.97
2018-08-03T03:18:50.714Z,20.93
2018-08-03T03:19:50.811Z,20.94
2018-08-03T03:20:50.692Z,20.94
2018-08-03T03:21:50.708Z,20.82
2018-08-03T03:22:50.630Z,20.91
2018-08-03T03:23:50.711Z,20.93
2018-08-03T03:24:50.584Z,20.88
2018-08-03T03:25:52.677Z,20.87
2018-08-03T03:26:50.542Z,20.94
2018-08-03T03:27:50.544Z,20.85
2018-08-03T03:28:50.503Z,20.88
2018-08-03T03:29:50.600Z,20.83
2018-08-03T03:30:50.459Z,20.82
2018-08-03T03:31:50.513Z,20.91
2018-08-03T03:32:50.422Z,20.83
2018-08-03T03:33:51.443Z,20.78
2018-08-03T03:34:50.381Z,20.82
2018-08-03T03:35:50.430Z,20.85
2018-08-03T03:36:50.331Z,20.76
2018-08-03T03:37:51.380Z,20.79
2018-08-03T03:38:50.289Z,20.91
2018-08-03T03:39:50.365Z,20.83
2018-08-03T03:40:50.241Z,20.83
2018-08-03T03:41:50.297Z,20.88
2018-08-03T03:42:51.819Z,20.87
2018-08-03T03:43:50.291Z,20.76
2018-08-03T03:44:50.169Z,20.81
2018-08-03T03:45:50.210Z,20.78
2018-08-03T03:46:50.137Z,20.71
2018-08-03T03:47:51.129Z,20.76
2018-08-03T03:48:50.080Z,20.66
2018-08-03T03:49:50.140Z,20.71
2018-08-03T03:50:50.073Z,20.69
2018-08-03T03:51:51.053Z,20.64
2018-08-03T03:52:49.998Z,20.69
2018-08-03T03:53:50.046Z,20.72
2018-08-03T03:54:49.966Z,20.68
2018-08-03T03:55:50.062Z,20.64
2018-08-03T03:56:49.926Z,20.69
2018-08-03T03:57:50.991Z,20.76
2018-08-03T03:58:49.870Z,20.71
2018-08-03T03:59:49.878Z,20.73
2018-08-03T04:00:49.851Z,20.68
2018-08-03T04:01:49.892Z,20.66
2018-08-03T04:02:49.795Z,20.68
2018-08-03T04:03:50.831Z,20.68
2018-08-03T04:04:49.745Z,20.72
2018-08-03T04:05:50.836Z,20.76
2018-08-03T04:06:49.705Z,20.78
2018-08-03T04:07:49.728Z,20.69
2018-08-03T04:08:49.672Z,20.69
2018-08-03T04:09:50.660Z,20.68
2018-08-03T04:10:49.629Z,20.73
2018-08-03T04:11:49.659Z,20.76
2018-08-03T04:12:49.579Z,20.81
2018-08-03T04:13:50.697Z,20.78
2018-08-03T04:14:49.583Z,20.76
2018-08-03T04:15:50.599Z,20.72
2018-08-03T04:16:49.529Z,20.64
2018-08-03T04:17:50.520Z,20.73
2018-08-03T04:18:49.455Z,20.66
2018-08-03T04:19:49.501Z,20.73
2018-08-03T04:20:49.433Z,20.72
2018-08-03T04:21:49.417Z,20.58
2018-08-03T04:22:49.370Z,20.66
2018-08-03T04:23:49.427Z,20.72
2018-08-03T04:24:49.336Z,20.75
2018-08-03T04:25:49.341Z,20.72
2018-08-03T04:26:49.298Z,20.75
2018-08-03T04:27:50.379Z,20.76
2018-08-03T04:28:49.259Z,20.78
2018-08-03T04:29:49.260Z,20.79
2018-08-03T04:30:49.206Z,20.75
2018-08-03T04:31:51.221Z,20.71
2018-08-03T04:32:49.163Z,20.75
2018-08-03T04:33:50.209Z,20.69
2018-08-03T04:34:49.127Z,20.73
2018-08-03T04:35:49.142Z,20.78
2018-08-03T04:36:49.081Z,20.75
2018-08-03T04:37:49.157Z,20.82
2018-08-03T04:38:49.073Z,20.73
2018-08-03T04:39:50.105Z,20.78
2018-08-03T04:40:49.015Z,20.85
2018-08-03T04:41:49.078Z,20.76
2018-08-03T04:42:48.953Z,20.88
2018-08-03T04:43:48.988Z,20.76
2018-08-03T04:44:48.930Z,20.91
2018-08-03T04:45:49.926Z,20.79
2018-08-03T04:46:48.878Z,20.71
2018-08-03T04:47:48.916Z,20.75
2018-08-03T04:48:48.839Z,20.76
2018-08-03T04:49:48.827Z,20.75
2018-08-03T04:50:48.817Z,20.75
2018-08-03T04:51:48.839Z,20.75
2018-08-03T04:52:48.776Z,20.75
2018-08-03T04:53:48.789Z,20.78
2018-08-03T04:54:48.754Z,20.76
2018-08-03T04:55:48.698Z,20.68
2018-08-03T04:56:48.663Z,20.75
2018-08-03T04:57:48.682Z,20.73
2018-08-03T04:58:48.620Z,20.83
2018-08-03T04:59:48.608Z,20.75
2018-08-03T05:00:48.591Z,20.82
2018-08-03T05:01:48.588Z,20.76
2018-08-03T05:02:48.535Z,20.79
2018-08-03T05:03:48.553Z,20.87
2018-08-03T05:04:48.552Z,20.82
2018-08-03T05:05:48.566Z,20.88
2018-08-03T05:06:48.457Z,21.00
2018-08-03T05:07:48.437Z,21.03
2018-08-03T05:08:49.512Z,20.94
2018-08-03T05:09:48.406Z,21.01
2018-08-03T05:10:48.522Z,21.01
2018-08-03T05:11:48.365Z,21.08
2018-08-03T05:12:52.915Z,21.08
2018-08-03T05:13:48.310Z,21.12
2018-08-03T05:14:48.452Z,21.16
2018-08-03T05:15:48.279Z,21.15
2018-08-03T05:16:48.259Z,21.15
2018-08-03T05:17:48.370Z,21.13
2018-08-03T05:18:48.208Z,21.16
2018-08-03T05:19:49.281Z,21.30
2018-08-03T05:20:48.163Z,21.18
2018-08-03T05:21:48.284Z,21.19
2018-08-03T05:22:48.120Z,21.18
2018-08-03T05:23:48.189Z,21.24
2018-08-03T05:24:48.083Z,21.45
2018-08-03T05:25:50.099Z,21.24
2018-08-03T05:26:48.041Z,21.31
2018-08-03T05:28:33.937Z,21.27
2018-08-03T05:29:33.945Z,21.18
2018-08-03T05:31:28.482Z,21.16
2018-08-03T05:32:27.340Z,21.16
2018-08-03T05:33:27.413Z,21.19
2018-08-03T05:34:27.295Z,21.26
2018-08-03T05:35:27.420Z,21.26
2018-08-03T05:36:27.267Z,21.34
2018-08-03T05:37:27.301Z,21.40
2018-08-03T05:38:27.222Z,21.40
2018-08-03T05:39:27.306Z,21.45
2018-08-03T05:40:27.170Z,21.45
2018-08-03T05:41:27.737Z,21.51
2018-08-03T05:42:27.153Z,21.53
2018-08-03T05:43:27.123Z,21.61
2018-08-03T05:44:27.101Z,21.53
2018-08-03T05:45:27.156Z,21.63
2018-08-03T05:46:27.065Z,21.56
2018-08-03T05:47:27.070Z,21.71
2018-08-03T05:48:27.032Z,21.75
2018-08-03T05:49:27.067Z,21.82
2018-08-03T05:50:26.977Z,21.79
2018-08-03T05:51:26.972Z,21.89
2018-08-03T05:52:26.970Z,21.86
2018-08-03T05:53:26.983Z,21.91
2018-08-03T05:54:26.880Z,22.02
2018-08-03T05:55:26.897Z,22.12
2018-08-03T05:56:26.839Z,22.08
2018-08-03T05:57:26.914Z,22.11
2018-08-03T05:58:26.806Z,22.26
2018-08-03T05:59:26.798Z,22.27
2018-08-03T06:00:26.832Z,22.30
2018-08-03T06:01:26.752Z,22.38
2018-08-03T06:02:26.750Z,22.42
2018-08-03T06:03:26.703Z,22.44
2018-08-03T06:04:26.762Z,22.48
2018-08-03T06:05:26.658Z,22.69
2018-08-03T06:06:26.771Z,22.67
2018-08-03T06:07:26.629Z,22.52
2018-08-03T06:08:26.680Z,22.57
2018-08-03T06:09:26.608Z,22.52
2018-08-03T06:10:26.724Z,22.57
2018-08-03T06:11:26.543Z,22.59
2018-08-03T06:12:26.886Z,22.51
2018-08-03T06:13:26.490Z,22.67
2018-08-03T06:14:26.650Z,22.67
2018-08-03T06:15:26.444Z,22.78
2018-08-03T06:16:26.426Z,22.79
2018-08-03T06:17:26.549Z,22.74
2018-08-03T06:18:26.393Z,22.81
2018-08-03T06:19:26.455Z,22.84
2018-08-03T06:20:26.342Z,22.91
2018-08-03T06:21:27.391Z,22.82
2018-08-03T06:22:26.313Z,22.89
2018-08-03T06:23:41.967Z,23.01
2018-08-03T06:24:26.249Z,23.00
2018-08-03T06:25:26.408Z,22.88
2018-08-03T06:26:26.217Z,22.96
2018-08-03T06:27:30.954Z,22.99
2018-08-03T06:28:26.184Z,22.94
2018-08-03T06:29:26.397Z,22.96
2018-08-03T06:30:26.134Z,22.89
2018-08-03T06:31:27.305Z,22.96
2018-08-03T06:32:26.098Z,23.04
2018-08-03T06:33:26.077Z,23.07
2018-08-03T06:34:26.226Z,23.04
2018-08-03T06:35:26.018Z,23.11
2018-08-03T06:36:26.211Z,23.14
2018-08-03T06:37:25.989Z,23.21
2018-08-03T06:38:26.114Z,23.37
2018-08-03T06:39:25.961Z,23.42
2018-08-03T06:40:26.127Z,23.47
2018-08-03T06:41:25.891Z,23.45
2018-08-03T06:42:26.038Z,23.54
2018-08-03T06:43:25.859Z,23.57
2018-08-03T06:44:26.990Z,23.68
2018-08-03T06:45:25.813Z,23.67
2018-08-03T06:46:25.968Z,23.75
2018-08-03T06:47:25.766Z,23.72
2018-08-03T06:48:25.944Z,23.87
2018-08-03T06:49:25.722Z,23.78
2018-08-03T06:50:30.493Z,23.97
2018-08-03T06:51:25.704Z,23.87
2018-08-03T06:52:31.465Z,23.99
2018-08-03T06:53:25.635Z,24.08
2018-08-03T06:54:25.632Z,24.12
2018-08-03T06:55:25.595Z,24.21
2018-08-03T06:56:25.732Z,24.19
2018-08-03T06:57:25.561Z,24.23
2018-08-03T06:58:25.538Z,24.23
2018-08-03T06:59:25.528Z,24.31
2018-08-03T07:00:25.483Z,24.33
2018-08-03T07:01:25.460Z,24.31
2018-08-03T07:02:25.568Z,24.18
2018-08-03T07:03:25.435Z,24.29
2018-08-03T07:04:25.462Z,24.31
2018-08-03T07:05:25.385Z,24.41
2018-08-03T07:06:25.354Z,24.27
2018-08-03T07:07:25.351Z,24.42
2018-08-03T07:08:25.341Z,24.44
2018-08-03T07:09:25.292Z,24.49
2018-08-03T07:10:26.439Z,24.48
2018-08-03T07:11:25.278Z,24.48
2018-08-03T07:12:25.258Z,24.60
2018-08-03T07:13:25.209Z,24.66
2018-08-03T07:14:25.196Z,24.71
2018-08-03T07:15:25.194Z,24.75
2018-08-03T07:16:25.264Z,24.75
2018-08-03T07:17:25.122Z,24.79
2018-08-03T07:18:25.231Z,24.79
2018-08-03T07:19:25.076Z,24.84
2018-08-03T07:20:25.264Z,24.97
2018-08-03T07:21:25.029Z,24.90
2018-08-03T07:22:25.086Z,24.92
2018-08-03T07:23:25.005Z,24.98
2018-08-03T07:24:24.972Z,24.94
2018-08-03T07:25:24.944Z,24.97
2018-08-03T07:26:24.974Z,24.98
2018-08-03T07:27:25.010Z,24.93
2018-08-03T07:28:24.896Z,24.94
2018-08-03T07:29:24.924Z,25.08
2018-08-03T07:30:24.847Z,25.14
2018-08-03T07:31:24.831Z,25.11
2018-08-03T07:32:24.799Z,25.17
2018-08-03T07:33:24.776Z,25.20
2018-08-03T07:34:24.769Z,25.20
2018-08-03T07:35:24.761Z,25.29
2018-08-03T07:36:24.712Z,25.36
2018-08-03T07:37:24.794Z,25.41
2018-08-03T07:38:24.670Z,25.49
2018-08-03T07:39:24.654Z,25.59
2018-08-03T07:40:24.695Z,25.67
2018-08-03T07:41:24.604Z,25.54
2018-08-03T07:42:24.716Z,25.51
2018-08-03T07:43:24.689Z,25.57
2018-08-03T07:44:24.651Z,25.64
2018-08-03T07:45:24.520Z,25.69
2018-08-03T07:46:24.526Z,25.86
2018-08-03T07:47:24.475Z,25.81
2018-08-03T07:48:24.578Z,25.81
2018-08-03T07:49:24.444Z,25.90
2018-08-03T07:50:24.451Z,25.79
2018-08-03T07:51:24.399Z,25.96
2018-08-03T07:52:24.383Z,26.03
2018-08-03T07:53:24.353Z,26.04
2018-08-03T07:54:24.375Z,26.09
2018-08-03T07:55:24.316Z,26.08
2018-08-03T07:56:24.394Z,26.21
2018-08-03T07:57:24.263Z,26.23
2018-08-03T07:58:24.303Z,26.24
2018-08-03T07:59:24.215Z,26.32
2018-08-03T08:00:24.206Z,26.35
2018-08-03T08:01:24.220Z,26.38
2018-08-03T08:02:24.167Z,26.38
2018-08-03T08:03:24.236Z,26.31
2018-08-03T08:04:24.111Z,26.38
2018-08-03T08:05:24.149Z,26.39
2018-08-03T08:06:24.133Z,26.46
2018-08-03T08:07:24.088Z,26.54
2018-08-03T08:08:24.021Z,26.61
2018-08-03T08:09:24.081Z,26.60
2018-08-03T08:10:23.990Z,26.61
2018-08-03T08:11:24.015Z,26.61
2018-08-03T08:12:23.943Z,26.64
2018-08-03T08:13:24.018Z,26.66
2018-08-03T08:14:23.925Z,26.71
2018-08-03T08:15:23.920Z,26.83
2018-08-03T08:16:23.852Z,26.78
2018-08-03T08:17:23.845Z,26.79
2018-08-03T08:18:23.831Z,26.87
2018-08-03T08:19:23.839Z,26.88
2018-08-03T08:20:23.767Z,27.03
2018-08-03T08:21:23.871Z,26.98
2018-08-03T08:22:23.726Z,27.03
2018-08-03T08:23:23.768Z,27.15
2018-08-03T08:24:23.694Z,27.18
2018-08-03T08:25:23.778Z,27.28
2018-08-03T08:26:23.641Z,27.30
2018-08-03T08:27:23.690Z,27.30
2018-08-03T08:28:23.604Z,27.30
2018-08-03T08:29:23.596Z,27.40
2018-08-03T08:30:23.561Z,27.50
2018-08-03T08:31:23.641Z,27.53
2018-08-03T08:32:23.538Z,27.53
2018-08-03T08:33:23.489Z,27.63
2018-08-03T08:34:23.524Z,27.50
2018-08-03T08:35:23.462Z,27.66
2018-08-03T08:36:23.553Z,27.66
2018-08-03T08:37:23.422Z,27.71
2018-08-03T08:38:23.469Z,27.80
2018-08-03T08:39:23.371Z,27.87
2018-08-03T08:40:23.371Z,27.84
2018-08-03T08:41:23.322Z,27.91
2018-08-03T08:42:23.328Z,27.88
2018-08-03T08:43:23.447Z,28.08
2018-08-03T08:44:23.265Z,28.13
2018-08-03T08:45:23.307Z,28.17
2018-08-03T08:46:23.221Z,28.15
2018-08-03T08:47:23.217Z,28.18
2018-08-03T08:48:23.172Z,28.17
2018-08-03T08:49:23.220Z,28.17
2018-08-03T08:50:23.136Z,28.33
2018-08-03T08:51:23.131Z,28.39
2018-08-03T08:52:23.113Z,28.48
2018-08-03T08:53:23.157Z,28.52
2018-08-03T08:54:23.054Z,28.58
2018-08-03T08:55:23.060Z,28.51
2018-08-03T08:56:23.028Z,28.52
2018-08-03T08:57:23.079Z,28.58
2018-08-03T08:58:22.988Z,28.60
2018-08-03T08:59:22.978Z,28.67
2018-08-03T09:00:22.929Z,28.69
2018-08-03T09:01:22.915Z,28.79
2018-08-03T09:02:22.905Z,28.77
2018-08-03T09:03:22.864Z,28.82
2018-08-03T09:04:22.919Z,28.87
2018-08-03T09:05:22.847Z,28.98
2018-08-03T09:06:22.828Z,29.03
2018-08-03T09:07:22.871Z,28.94
2018-08-03T09:08:22.841Z,28.97
2018-08-03T09:09:22.751Z,28.97
2018-08-03T09:10:22.715Z,29.02
2018-08-03T09:11:22.762Z,29.12
2018-08-03T09:12:22.681Z,29.26
2018-08-03T09:13:22.709Z,29.27
2018-08-03T09:14:22.643Z,29.49
2018-08-03T09:15:22.684Z,29.42
2018-08-03T09:16:22.615Z,29.58
2018-08-03T09:17:22.686Z,29.57
2018-08-03T09:18:22.605Z,29.73
2018-08-03T09:19:22.549Z,29.71
2018-08-03T09:20:22.610Z,29.91
2018-08-03T09:21:22.497Z,29.99
2018-08-03T09:22:22.518Z,30.23
2018-08-03T09:23:22.468Z,30.30
2018-08-03T09:24:22.528Z,30.29
2018-08-03T09:25:22.408Z,30.34
2018-08-03T09:26:22.404Z,30.28
2018-08-03T09:27:22.368Z,30.26
2018-08-03T09:28:22.502Z,30.23
2018-08-03T09:29:22.366Z,30.11
2018-08-03T09:30:22.359Z,30.18
2018-08-03T09:31:22.300Z,30.23
2018-08-03T09:32:22.368Z,30.19
2018-08-03T09:33:22.239Z,30.26
2018-08-03T09:34:22.236Z,30.40
2018-08-03T09:35:22.288Z,30.45
2018-08-03T09:36:22.209Z,30.59
2018-08-03T09:37:22.172Z,30.54
2018-08-03T09:38:22.146Z,30.57
2018-08-03T09:39:22.165Z,30.54
2018-08-03T09:40:22.126Z,30.56
2018-08-03T09:41:22.085Z,30.59
2018-08-03T09:42:22.067Z,30.57
2018-08-03T09:43:22.050Z,30.61
2018-08-03T09:44:22.029Z,30.54
2018-08-03T09:45:22.007Z,30.54
2018-08-03T09:46:21.982Z,30.57
2018-08-03T09:47:21.961Z,30.73
2018-08-03T09:48:21.931Z,30.67
2018-08-03T09:49:21.921Z,30.72
2018-08-03T09:50:21.909Z,30.88
2018-08-03T09:51:21.885Z,31.04
2018-08-03T09:52:21.861Z,30.98
2018-08-03T09:53:21.834Z,31.10
2018-08-03T09:54:21.836Z,31.12
2018-08-03T09:56:07.729Z,31.16
2018-08-03T09:57:07.703Z,31.19
2018-08-03T09:59:01.307Z,31.42
2018-08-03T10:00:01.217Z,31.35
2018-08-03T10:01:01.216Z,31.23
2018-08-03T10:02:01.168Z,31.15
2018-08-03T10:03:01.149Z,31.20
2018-08-03T10:04:01.131Z,31.25
2018-08-03T10:05:01.101Z,31.30
2018-08-03T10:06:01.086Z,31.32
2018-08-03T10:07:01.067Z,31.52
2018-08-03T10:08:01.147Z,31.84
2018-08-03T10:09:01.053Z,31.98
2018-08-03T10:10:01.005Z,32.12
2018-08-03T10:11:00.982Z,32.21
2018-08-03T10:12:00.976Z,32.35
2018-08-03T10:13:00.988Z,32.50
2018-08-03T10:14:00.934Z,32.54
2018-08-03T10:15:00.906Z,32.40
2018-08-03T10:16:01.922Z,32.51
2018-08-03T10:17:00.867Z,32.28
2018-08-03T10:18:00.843Z,32.24
2018-08-03T10:19:00.864Z,32.27
2018-08-03T10:20:02.812Z,32.28
2018-08-03T10:21:00.797Z,32.17
2018-08-03T10:22:00.778Z,32.31
2018-08-03T10:23:00.746Z,32.62
2018-08-03T10:24:00.721Z,32.66
2018-08-03T10:25:00.704Z,32.88
2018-08-03T10:26:00.719Z,32.93
2018-08-03T10:27:00.683Z,32.96
2018-08-03T10:28:01.658Z,33.07
2018-08-03T10:29:00.638Z,32.99
2018-08-03T10:30:46.520Z,33.09
2018-08-03T10:31:46.527Z,33.12
2018-08-03T10:32:46.436Z,33.11
2018-08-03T10:33:46.436Z,32.93
2018-08-03T10:34:46.399Z,32.85
2018-08-03T10:35:46.455Z,32.63
2018-08-03T10:36:46.354Z,32.41
2018-08-03T10:37:48.410Z,32.31
2018-08-03T10:38:46.499Z,32.19
2018-08-03T10:39:46.369Z,32.25
2018-08-03T10:40:46.280Z,32.19
2018-08-03T10:41:46.286Z,32.19
2018-08-03T10:42:46.277Z,32.09
2018-08-03T10:43:46.303Z,32.16
2018-08-03T10:44:46.241Z,32.09
2018-08-03T10:45:46.246Z,32.19
2018-08-03T10:46:46.153Z,32.21
2018-08-03T10:47:46.227Z,32.27
2018-08-03T10:48:46.137Z,32.32
2018-08-03T10:49:47.159Z,32.35
2018-08-03T10:50:46.086Z,32.28
2018-08-03T10:51:46.124Z,32.40
2018-08-03T10:52:46.060Z,32.51
2018-08-03T10:53:46.191Z,32.65
2018-08-03T10:54:45.992Z,32.93
2018-08-03T10:55:46.043Z,33.06
2018-08-03T10:56:45.963Z,33.06
2018-08-03T10:57:46.018Z,33.06
2018-08-03T10:58:45.929Z,33.12
2018-08-03T10:59:46.918Z,33.20
2018-08-03T11:00:45.919Z,33.11
2018-08-03T11:01:46.042Z,33.18
2018-08-03T11:02:45.841Z,33.06
2018-08-03T11:03:46.886Z,33.14
2018-08-03T11:04:45.804Z,33.11
2018-08-03T11:05:45.872Z,33.11
2018-08-03T11:06:45.799Z,33.06
2018-08-03T11:07:45.808Z,32.90
2018-08-03T11:08:45.725Z,32.81
2018-08-03T11:09:45.792Z,32.71
2018-08-03T11:10:45.707Z,32.58
2018-08-03T11:12:32.200Z,32.71
2018-08-03T11:13:32.269Z,32.68
2018-08-03T11:14:32.122Z,32.81
2018-08-03T11:15:32.215Z,32.83
2018-08-03T11:16:32.085Z,32.93
2018-08-03T11:17:32.125Z,32.99
2018-08-03T11:18:32.048Z,33.05
2018-08-03T11:19:32.145Z,33.07
2018-08-03T11:20:32.010Z,32.98
2018-08-03T11:21:32.051Z,32.95
2018-08-03T11:22:31.970Z,33.06
2018-08-03T11:23:32.064Z,33.24
2018-08-03T11:24:31.934Z,33.55
2018-08-03T11:25:31.966Z,33.71
2018-08-03T11:26:31.886Z,33.86
2018-08-03T11:27:31.992Z,34.03
2018-08-03T11:28:31.851Z,34.21
2018-08-03T11:29:31.897Z,34.42
2018-08-03T11:30:31.812Z,34.18
2018-08-03T11:31:31.942Z,34.09
2018-08-03T11:32:31.783Z,34.05
2018-08-03T11:33:31.830Z,33.89
2018-08-03T11:34:31.730Z,33.89
2018-08-03T11:35:31.830Z,33.84
2018-08-03T11:36:31.708Z,33.84
2018-08-03T11:37:31.754Z,33.75
2018-08-03T11:38:31.666Z,33.89
2018-08-03T11:39:31.649Z,33.87
2018-08-03T11:40:31.617Z,34.05
2018-08-03T11:41:31.667Z,34.14
2018-08-03T11:42:31.600Z,34.46
2018-08-03T11:43:31.578Z,34.56
2018-08-03T11:44:31.545Z,34.81
2018-08-03T11:45:31.589Z,34.88
2018-08-03T11:46:31.520Z,34.87
2018-08-03T11:47:31.496Z,34.98
2018-08-03T11:48:31.475Z,35.05
2018-08-03T11:49:31.516Z,35.17
2018-08-03T11:50:31.432Z,35.13
2018-08-03T11:51:31.423Z,35.12
2018-08-03T11:52:31.406Z,34.98
2018-08-03T11:53:31.454Z,34.80
2018-08-03T11:55:17.526Z,34.46
2018-08-03T11:56:17.493Z,34.40
2018-08-03T11:57:17.536Z,34.31
2018-08-03T11:58:17.471Z,33.97
2018-08-03T11:59:17.444Z,34.11
2018-08-03T12:00:17.412Z,33.86
2018-08-03T12:01:17.456Z,33.97
2018-08-03T12:02:17.364Z,33.97
2018-08-03T12:03:17.362Z,34.09
2018-08-03T12:04:17.327Z,34.14
2018-08-03T12:05:17.380Z,34.27
2018-08-03T12:06:17.280Z,34.19
2018-08-03T12:07:17.291Z,34.19
2018-08-03T12:08:17.241Z,34.11
2018-08-03T12:09:17.302Z,34.21
2018-08-03T12:10:17.215Z,34.21
2018-08-03T12:11:17.213Z,34.28
2018-08-03T12:12:17.185Z,34.26
2018-08-03T12:13:17.230Z,34.48
2018-08-03T12:14:17.129Z,34.58
2018-08-03T12:15:17.144Z,34.75
2018-08-03T12:16:17.096Z,34.83
2018-08-03T12:17:17.160Z,35.12
2018-08-03T12:18:17.055Z,35.27
2018-08-03T12:19:17.060Z,34.91
2018-08-03T12:20:17.019Z,34.88
2018-08-03T12:21:17.074Z,34.78
2018-08-03T12:22:17.010Z,34.86
2018-08-03T12:23:16.983Z,34.84
2018-08-03T12:24:16.977Z,34.86
2018-08-03T12:25:16.996Z,35.06
2018-08-03T12:26:16.910Z,35.06
2018-08-03T12:27:16.916Z,35.00
2018-08-03T12:28:16.875Z,35.03
2018-08-03T12:29:16.925Z,35.12
2018-08-03T12:30:16.834Z,35.25
2018-08-03T12:31:16.884Z,35.28
2018-08-03T12:32:16.798Z,35.40
2018-08-03T12:33:16.844Z,34.91
2018-08-03T12:34:16.791Z,35.00
2018-08-03T12:35:16.769Z,35.00
2018-08-03T12:36:16.731Z,34.94
2018-08-03T12:37:16.784Z,34.72
2018-08-03T12:38:16.682Z,34.76
2018-08-03T12:39:16.684Z,34.80
2018-08-03T12:40:16.656Z,34.88
2018-08-03T12:41:16.697Z,34.90
2018-08-03T12:42:16.605Z,34.94
2018-08-03T12:43:16.615Z,35.06
2018-08-03T12:44:16.582Z,35.24
2018-08-03T12:45:16.613Z,35.22
2018-08-03T12:46:16.571Z,35.20
2018-08-03T12:47:16.523Z,35.20
2018-08-03T12:48:16.510Z,35.02
2018-08-03T12:49:16.541Z,34.99
2018-08-03T12:50:16.462Z,34.86
2018-08-03T12:51:16.553Z,34.71
2018-08-03T12:52:16.432Z,34.81
2018-08-03T12:53:16.451Z,34.73
2018-08-03T12:54:16.393Z,34.61
2018-08-03T12:55:16.475Z,34.58
2018-08-03T12:56:16.351Z,34.53
2018-08-03T12:57:16.350Z,34.56
2018-08-03T12:58:16.320Z,34.53
2018-08-03T12:59:16.400Z,34.64
2018-08-03T13:00:16.277Z,34.64
2018-08-03T13:02:02.285Z,34.72
2018-08-03T13:03:02.256Z,34.93